Airport Name : Hattiesburg Laurel Rgnl

Other Name : Hattiesburg

ICAO : KPIB

IATA : PIB

FAA : PIB

Latitude : 31.467139

Longitude : -89.337056

Country : United States

Local Date and Time : 20 May 2024 00:14

 

TAF (Terminal Aerodrome Forecast)

KPIB 192324Z 2000/2024 03005KT P6SM FEW060

 

METAR (METeorological Aerodrome Report)

KPIB 200456Z AUTO 00000KT 10SM CLR 20/20 A2995 RMK AO2 SLP138 T02000200 PNO $

KPIB 200356Z AUTO 00000KT 10SM CLR 21/21 A2995 RMK AO2 SLP140 T02110206 PNO $

KPIB 200256Z AUTO 00000KT 10SM CLR 22/21 A2995 RMK AO2 SLP137 6//// T02220206 53009 PNO $

KPIB 200156Z AUTO 00000KT 10SM CLR 23/21 A2993 RMK AO2 SLP133 T02280211 PNO $